Lunenburg, Virginia
Current Conditions -  °F | °C
As of 1:35 PM on Thursday 30 Oct 2014 (Local Time) from KW31 Reporting Station
Scattered Clouds Scattered Clouds  
Wind Chill: 61°   Ceiling: Unl
Heat Index: 61°   Visibility: 10mi
Dew Point: 43°   Wind: 0mph
Humidity: 52%   Direction: NA
Pressure: 30.02"   Gusts: NA
Location:  36.96°N, 78.26°W
Report Text: KW31 301735Z AUTO 00000KT 10SM SCT041 SCT050 16/06 A3002 RMK AO1 T01590059
Loading
Personal Weather Stations






























Interactive Weather Map
Tropical Storm Tracking
New forecast layout! Learn more

10-Day Weather Forecast

Advertisements
Track Severe Weather on mobile